createdAt,value
2022-08-30T00:00:38.263Z,10.94
2022-08-30T00:01:41.894Z,9.12
2022-08-30T00:02:45.307Z,8.28
2022-08-30T00:03:48.540Z,9.37
2022-08-30T00:04:53.650Z,9.09
2022-08-30T00:05:56.771Z,11.33
2022-08-30T00:07:02.085Z,10.23
2022-08-30T00:08:05.214Z,8.77
2022-08-30T00:09:08.617Z,9.01
2022-08-30T00:10:12.352Z,10.81
2022-08-30T00:11:18.963Z,8.53
2022-08-30T00:12:22.156Z,9.78
2022-08-30T00:13:25.439Z,8.83
2022-08-30T00:14:28.679Z,12.68
2022-08-30T00:15:31.883Z,8.24
2022-08-30T00:16:35.648Z,9.53
2022-08-30T00:17:39.190Z,10.86
2022-08-30T00:18:42.775Z,9.71
2022-08-30T00:19:46.896Z,9.25
2022-08-30T00:20:51.054Z,7.69
2022-08-30T00:21:55.545Z,12.27
2022-08-30T00:22:58.409Z,9.41
2022-08-30T00:24:01.666Z,9.74
2022-08-30T00:25:05.654Z,8.42
2022-08-30T00:26:09.057Z,10.32
2022-08-30T00:27:12.051Z,8.14
2022-08-30T00:28:16.364Z,10.76
2022-08-30T00:29:20.034Z,8.72
2022-08-30T00:30:23.570Z,8.06
2022-08-30T00:31:26.735Z,7.57
2022-08-30T00:32:30.662Z,7.97
2022-08-30T00:33:33.933Z,11.30
2022-08-30T00:34:37.021Z,9.52
2022-08-30T00:35:41.022Z,12.03
2022-08-30T00:36:45.211Z,8.88
2022-08-30T00:37:48.515Z,8.72
2022-08-30T00:38:51.547Z,7.26
2022-08-30T00:39:54.622Z,9.66
2022-08-30T00:40:59.233Z,8.67
2022-08-30T00:42:02.440Z,9.40
2022-08-30T00:43:09.585Z,8.59
2022-08-30T00:44:14.620Z,13.91
2022-08-30T00:45:23.986Z,7.69
2022-08-30T00:46:28.104Z,12.58
2022-08-30T00:47:31.349Z,10.01
2022-08-30T00:48:38.021Z,9.63
2022-08-30T00:49:49.468Z,7.64
2022-08-30T00:50:56.215Z,9.19
2022-08-30T00:52:01.953Z,8.58
2022-08-30T00:53:08.612Z,8.37
2022-08-30T00:54:12.207Z,7.36
2022-08-30T00:55:17.552Z,8.01
2022-08-30T00:56:22.851Z,10.21
2022-08-30T00:57:26.106Z,7.71
2022-08-30T00:58:32.582Z,7.61
2022-08-30T00:59:36.070Z,8.49
2022-08-30T01:00:39.786Z,7.76
2022-08-30T01:01:42.937Z,8.57
2022-08-30T01:02:46.340Z,8.85
2022-08-30T01:03:52.874Z,9.12
2022-08-30T01:04:57.210Z,9.43
2022-08-30T01:06:00.933Z,10.48
2022-08-30T01:07:04.069Z,8.04
2022-08-30T01:08:07.461Z,8.50
2022-08-30T01:09:10.669Z,9.34
2022-08-30T01:10:15.150Z,10.03
2022-08-30T01:11:21.646Z,14.86
2022-08-30T01:12:24.820Z,8.43
2022-08-30T01:13:28.020Z,8.14
2022-08-30T01:14:33.592Z,7.31
2022-08-30T01:15:38.275Z,7.96
2022-08-30T01:16:43.368Z,7.64
2022-08-30T01:17:47.543Z,7.67
2022-08-30T01:18:55.468Z,10.84
2022-08-30T01:20:07.956Z,12.05
2022-08-30T01:21:23.464Z,11.78
2022-08-30T01:22:36.333Z,14.23
2022-08-30T01:23:42.942Z,11.75
2022-08-30T01:24:50.275Z,14.58
2022-08-30T01:25:54.765Z,9.02
2022-08-30T01:26:58.500Z,9.42
2022-08-30T01:28:05.218Z,8.32
2022-08-30T01:29:11.923Z,9.31
2022-08-30T01:30:15.344Z,8.74
2022-08-30T01:31:19.132Z,8.68
2022-08-30T01:32:29.026Z,9.39
2022-08-30T01:33:31.418Z,9.57
2022-08-30T01:34:34.965Z,9.98
2022-08-30T01:35:44.545Z,8.30
2022-08-30T01:36:48.877Z,11.81
2022-08-30T01:37:52.140Z,8.83
2022-08-30T01:38:57.172Z,9.36
2022-08-30T01:40:00.473Z,12.82
2022-08-30T01:41:13.309Z,13.06
2022-08-30T01:42:17.657Z,8.49
2022-08-30T01:43:20.888Z,8.34
2022-08-30T01:44:24.007Z,11.76
2022-08-30T01:45:27.260Z,9.61
2022-08-30T01:46:35.496Z,9.23
2022-08-30T01:47:39.840Z,12.38
2022-08-30T01:48:47.348Z,15.96
2022-08-30T01:49:48.916Z,13.70
2022-08-30T01:50:52.547Z,10.99
2022-08-30T01:52:01.095Z,9.72
2022-08-30T01:53:01.398Z,11.95
2022-08-30T01:54:05.085Z,10.96
2022-08-30T01:55:09.068Z,10.77
2022-08-30T01:56:13.873Z,11.52
2022-08-30T01:57:20.589Z,13.07
2022-08-30T01:58:23.894Z,13.68
2022-08-30T01:59:27.065Z,14.98
2022-08-30T02:00:31.763Z,11.66
2022-08-30T02:01:38.682Z,12.65
2022-08-30T02:02:43.235Z,13.67
2022-08-30T02:03:47.874Z,11.71
2022-08-30T02:04:53.020Z,12.37
2022-08-30T02:05:56.535Z,15.99
2022-08-30T02:06:59.895Z,11.51
2022-08-30T02:08:03.670Z,17.24
2022-08-30T02:09:07.130Z,13.61
2022-08-30T02:10:10.646Z,15.06
2022-08-30T02:11:14.839Z,10.81
2022-08-30T02:12:18.491Z,10.79
2022-08-30T02:13:21.512Z,11.55
2022-08-30T02:14:25.026Z,12.61
2022-08-30T02:15:28.147Z,10.88
2022-08-30T02:16:31.901Z,10.36
2022-08-30T02:17:35.130Z,10.49
2022-08-30T02:18:39.461Z,11.33
2022-08-30T02:19:43.122Z,11.26
2022-08-30T02:20:46.488Z,11.06
2022-08-30T02:21:50.161Z,12.78
2022-08-30T02:22:53.280Z,12.13
2022-08-30T02:23:56.426Z,12.18
2022-08-30T02:25:00.445Z,16.71
2022-08-30T02:26:04.677Z,14.02
2022-08-30T02:27:07.701Z,10.86
2022-08-30T02:28:10.990Z,12.35
2022-08-30T02:29:16.169Z,11.64
2022-08-30T02:30:20.502Z,13.54
2022-08-30T02:31:23.705Z,15.93
2022-08-30T02:32:27.215Z,15.28
2022-08-30T02:33:31.331Z,25.65
2022-08-30T02:34:34.438Z,16.84
2022-08-30T02:35:37.526Z,18.47
2022-08-30T02:36:41.490Z,17.03
2022-08-30T02:37:44.622Z,12.30
2022-08-30T02:38:49.008Z,15.78
2022-08-30T02:39:52.143Z,16.18
2022-08-30T02:40:55.685Z,11.36
2022-08-30T02:41:58.919Z,11.61
2022-08-30T02:43:02.068Z,11.48
2022-08-30T02:44:06.613Z,13.17
2022-08-30T02:45:10.524Z,11.17
2022-08-30T02:46:14.537Z,11.51
2022-08-30T02:47:17.855Z,10.59
2022-08-30T02:48:20.971Z,14.75
2022-08-30T02:49:33.073Z,14.44
2022-08-30T02:50:30.717Z,10.64
2022-08-30T02:51:33.793Z,14.00
2022-08-30T02:52:37.449Z,11.96
2022-08-30T02:53:42.227Z,11.32
2022-08-30T02:54:45.706Z,12.52
2022-08-30T02:55:50.741Z,14.60
2022-08-30T02:56:54.198Z,12.78
2022-08-30T02:57:57.228Z,13.33
2022-08-30T02:59:00.516Z,16.91
2022-08-30T03:00:09.543Z,12.43
2022-08-30T03:01:15.479Z,12.47
2022-08-30T03:02:19.655Z,14.21
2022-08-30T03:03:23.169Z,12.41
2022-08-30T03:04:26.799Z,10.30
2022-08-30T03:05:32.428Z,11.57
2022-08-30T03:06:36.139Z,13.31
2022-08-30T03:07:41.048Z,16.62
2022-08-30T03:08:44.387Z,12.46
2022-08-30T03:09:47.644Z,20.66
2022-08-30T03:10:51.001Z,17.83
2022-08-30T03:11:54.124Z,11.41
2022-08-30T03:12:57.612Z,11.76
2022-08-30T03:14:00.746Z,9.95
2022-08-30T03:15:06.213Z,12.66
2022-08-30T03:16:09.468Z,9.26
2022-08-30T03:17:15.544Z,9.55
2022-08-30T03:18:18.792Z,9.77
2022-08-30T03:19:22.004Z,10.14
2022-08-30T03:20:26.125Z,9.69
2022-08-30T03:21:29.227Z,10.78
2022-08-30T03:22:32.367Z,9.69
2022-08-30T03:23:35.766Z,9.29
2022-08-30T03:24:38.935Z,10.33
2022-08-30T03:25:42.065Z,10.08
2022-08-30T03:26:46.776Z,11.50
2022-08-30T03:27:50.546Z,10.50
2022-08-30T03:28:53.773Z,14.49
2022-08-30T03:29:57.029Z,11.19
2022-08-30T03:31:00.633Z,11.88
2022-08-30T03:32:04.037Z,10.48
2022-08-30T03:33:07.208Z,11.90
2022-08-30T03:34:10.495Z,13.09
2022-08-30T03:35:14.473Z,10.24
2022-08-30T03:36:19.622Z,11.59
2022-08-30T03:37:27.259Z,11.72
2022-08-30T03:38:27.696Z,10.58
2022-08-30T03:39:31.369Z,10.79
2022-08-30T03:40:36.696Z,10.68
2022-08-30T03:41:41.276Z,11.26
2022-08-30T03:42:45.096Z,9.94
2022-08-30T03:43:48.186Z,11.33
2022-08-30T03:44:51.381Z,10.72
2022-08-30T03:45:54.544Z,11.61
2022-08-30T03:46:57.654Z,9.57
2022-08-30T03:48:02.055Z,11.61
2022-08-30T03:49:08.225Z,10.91
2022-08-30T03:50:14.211Z,11.43
2022-08-30T03:51:17.817Z,10.91
2022-08-30T03:52:20.941Z,14.92
2022-08-30T03:53:25.810Z,11.87
2022-08-30T03:54:30.928Z,11.54
2022-08-30T03:55:34.159Z,11.05
2022-08-30T03:56:37.719Z,15.81
2022-08-30T03:57:43.546Z,14.48
2022-08-30T03:58:46.806Z,12.26
2022-08-30T03:59:49.910Z,15.21
2022-08-30T04:00:53.365Z,13.41
2022-08-30T04:01:58.401Z,26.12
2022-08-30T04:03:01.566Z,25.01
2022-08-30T04:04:04.795Z,20.54
2022-08-30T04:05:09.791Z,18.05
2022-08-30T04:06:13.656Z,19.51
2022-08-30T04:07:18.701Z,17.94
2022-08-30T04:08:22.866Z,15.77
2022-08-30T04:09:26.154Z,15.45
2022-08-30T04:10:29.957Z,14.86
2022-08-30T04:11:33.495Z,16.35
2022-08-30T04:12:38.712Z,14.14
2022-08-30T04:13:43.210Z,16.73
2022-08-30T04:14:46.300Z,15.21
2022-08-30T04:15:50.033Z,13.18
2022-08-30T04:16:53.424Z,16.52
2022-08-30T04:17:56.812Z,14.68
2022-08-30T04:19:00.021Z,12.29
2022-08-30T04:20:03.878Z,12.56
2022-08-30T04:21:09.485Z,11.81
2022-08-30T04:22:12.389Z,15.41
2022-08-30T04:23:16.117Z,19.74
2022-08-30T04:24:19.488Z,14.96
2022-08-30T04:25:22.794Z,13.35
2022-08-30T04:26:29.234Z,13.63
2022-08-30T04:27:31.892Z,18.27
2022-08-30T04:28:35.528Z,12.91
2022-08-30T04:29:38.897Z,15.17
2022-08-30T04:30:44.366Z,15.13
2022-08-30T04:31:47.537Z,16.35
2022-08-30T04:32:52.044Z,18.41
2022-08-30T04:33:55.801Z,20.91
2022-08-30T04:34:59.713Z,23.41
2022-08-30T04:36:05.287Z,22.56
2022-08-30T04:37:09.908Z,20.62
2022-08-30T04:38:13.923Z,18.91
2022-08-30T04:39:20.163Z,19.62
2022-08-30T04:40:24.837Z,17.94
2022-08-30T04:41:27.913Z,19.44
2022-08-30T04:42:33.669Z,20.23
2022-08-30T04:43:36.690Z,20.50
2022-08-30T04:44:39.884Z,17.52
2022-08-30T04:45:43.018Z,20.34
2022-08-30T04:46:46.336Z,19.42
2022-08-30T04:47:49.651Z,24.37
2022-08-30T04:48:52.890Z,21.71
2022-08-30T04:49:56.170Z,19.90
2022-08-30T04:50:59.321Z,22.01
2022-08-30T04:52:02.801Z,24.74
2022-08-30T04:53:05.986Z,17.33
2022-08-30T04:54:09.127Z,17.73
2022-08-30T04:55:17.998Z,21.52
2022-08-30T04:56:24.676Z,17.84
2022-08-30T04:57:28.096Z,19.16
2022-08-30T04:58:31.256Z,17.02
2022-08-30T04:59:34.360Z,18.17
2022-08-30T05:00:37.671Z,18.32
2022-08-30T05:01:45.380Z,18.63
2022-08-30T05:02:46.463Z,21.32
2022-08-30T05:03:50.929Z,19.57
2022-08-30T05:05:12.507Z,18.02
2022-08-30T05:06:19.937Z,18.16
2022-08-30T05:07:23.091Z,19.27
2022-08-30T05:08:26.203Z,19.62
2022-08-30T05:09:29.309Z,19.85
2022-08-30T05:10:33.658Z,26.59
2022-08-30T05:11:37.647Z,22.85
2022-08-30T05:12:42.739Z,27.26
2022-08-30T05:13:46.238Z,19.24
2022-08-30T05:14:49.939Z,19.74
2022-08-30T05:15:54.192Z,20.04
2022-08-30T05:16:57.489Z,25.16
2022-08-30T05:18:00.579Z,21.37
2022-08-30T05:19:03.753Z,21.53
2022-08-30T05:20:09.467Z,22.30
2022-08-30T05:21:15.868Z,23.14
2022-08-30T05:22:19.175Z,26.59
2022-08-30T05:23:22.290Z,27.01
2022-08-30T05:24:25.671Z,24.81
2022-08-30T05:25:32.069Z,24.39
2022-08-30T05:26:38.112Z,22.37
2022-08-30T05:27:41.281Z,25.78
2022-08-30T05:28:44.932Z,21.94
2022-08-30T05:29:49.273Z,29.21
2022-08-30T05:30:52.515Z,27.26
2022-08-30T05:31:55.699Z,25.43
2022-08-30T05:32:58.946Z,23.98
2022-08-30T05:34:03.180Z,21.28
2022-08-30T05:35:07.571Z,27.26
2022-08-30T05:36:12.403Z,18.44
2022-08-30T05:37:15.649Z,24.74
2022-08-30T05:38:18.833Z,19.99
2022-08-30T05:39:21.980Z,22.98
2022-08-30T05:40:26.605Z,17.69
2022-08-30T05:41:32.339Z,15.99
2022-08-30T05:42:36.440Z,17.46
2022-08-30T05:43:39.940Z,19.02
2022-08-30T05:44:44.359Z,16.67
2022-08-30T05:45:47.569Z,19.08
2022-08-30T05:46:50.799Z,17.13
2022-08-30T05:47:53.873Z,18.80
2022-08-30T05:48:57.105Z,18.11
2022-08-30T05:50:00.319Z,15.69
2022-08-30T05:51:06.956Z,17.62
2022-08-30T05:52:10.118Z,23.09
2022-08-30T05:53:13.233Z,16.39
2022-08-30T05:54:17.178Z,16.94
2022-08-30T05:55:20.371Z,18.42
2022-08-30T05:56:26.568Z,25.29
2022-08-30T05:57:33.405Z,20.82
2022-08-30T05:58:39.793Z,21.01
2022-08-30T05:59:43.313Z,16.51
2022-08-30T06:00:47.135Z,18.15
2022-08-30T06:01:50.534Z,17.53
2022-08-30T06:02:54.305Z,17.21
2022-08-30T06:04:03.706Z,19.36
2022-08-30T06:05:05.508Z,19.92
2022-08-30T06:06:09.514Z,18.59
2022-08-30T06:07:14.925Z,19.45
2022-08-30T06:08:18.333Z,19.13
2022-08-30T06:09:21.711Z,23.63
2022-08-30T06:10:25.285Z,18.51
2022-08-30T06:11:28.427Z,21.84
2022-08-30T06:12:31.708Z,20.83
2022-08-30T06:13:35.228Z,18.49
2022-08-30T06:14:38.931Z,18.49
2022-08-30T06:15:46.567Z,18.49
2022-08-30T06:16:51.312Z,26.64
2022-08-30T06:17:54.495Z,19.92
2022-08-30T06:18:59.637Z,22.03
2022-08-30T06:20:03.145Z,20.66
2022-08-30T06:21:06.743Z,25.77
2022-08-30T06:22:09.916Z,20.99
2022-08-30T06:23:13.641Z,22.91
2022-08-30T06:24:17.095Z,22.87
2022-08-30T06:25:20.835Z,21.37
2022-08-30T06:26:25.163Z,26.14
2022-08-30T06:27:28.351Z,23.33
2022-08-30T06:28:31.896Z,21.14
2022-08-30T06:29:35.076Z,21.72
2022-08-30T06:30:42.444Z,21.53
2022-08-30T06:31:45.732Z,21.41
2022-08-30T06:32:48.874Z,21.58
2022-08-30T06:33:52.588Z,26.56
2022-08-30T06:34:55.680Z,26.69
2022-08-30T06:36:05.946Z,25.04
2022-08-30T06:37:09.633Z,21.87
2022-08-30T06:38:12.798Z,21.92
2022-08-30T06:39:16.072Z,21.66
2022-08-30T06:40:21.160Z,20.40
2022-08-30T06:41:27.495Z,22.39
2022-08-30T06:42:32.514Z,23.32
2022-08-30T06:43:35.886Z,24.31
2022-08-30T06:44:39.008Z,21.75
2022-08-30T06:45:42.153Z,20.59
2022-08-30T06:46:45.575Z,21.93
2022-08-30T06:47:48.909Z,24.24
2022-08-30T06:48:53.062Z,22.33
2022-08-30T06:49:58.819Z,21.94
2022-08-30T06:51:01.996Z,23.30
2022-08-30T06:52:06.072Z,20.32
2022-08-30T06:53:09.437Z,19.71
2022-08-30T06:54:12.947Z,20.17
2022-08-30T06:55:17.146Z,20.35
2022-08-30T06:56:22.132Z,20.12
2022-08-30T06:57:26.427Z,22.37
2022-08-30T06:58:31.714Z,21.38
2022-08-30T06:59:34.910Z,21.53
2022-08-30T07:00:38.351Z,21.49
2022-08-30T07:01:41.743Z,19.71
2022-08-30T07:02:44.954Z,21.33
2022-08-30T07:03:48.144Z,24.08
2022-08-30T07:04:51.453Z,20.32
2022-08-30T07:05:55.941Z,21.77
2022-08-30T07:06:59.456Z,21.37
2022-08-30T07:08:03.861Z,23.24
2022-08-30T07:09:06.994Z,21.09
2022-08-30T07:10:10.975Z,17.84
2022-08-30T07:11:14.190Z,16.66
2022-08-30T07:12:17.420Z,19.53
2022-08-30T07:13:21.257Z,20.29
2022-08-30T07:14:24.499Z,16.98
2022-08-30T07:15:27.626Z,18.88
2022-08-30T07:16:33.849Z,16.13
2022-08-30T07:17:55.069Z,15.07
2022-08-30T07:18:59.904Z,13.70
2022-08-30T07:20:04.938Z,14.01
2022-08-30T07:21:11.638Z,14.51
2022-08-30T07:22:14.860Z,16.10
2022-08-30T07:23:18.649Z,14.36
2022-08-30T07:24:21.845Z,13.69
2022-08-30T07:25:25.080Z,14.73
2022-08-30T07:26:35.493Z,12.56
2022-08-30T07:27:39.365Z,13.53
2022-08-30T07:28:44.695Z,12.76
2022-08-30T07:29:49.356Z,11.87
2022-08-30T07:30:53.042Z,14.97
2022-08-30T07:31:56.185Z,18.15
2022-08-30T07:32:59.451Z,11.89
2022-08-30T07:34:04.457Z,11.38
2022-08-30T07:35:08.414Z,14.81
2022-08-30T07:36:12.904Z,11.96
2022-08-30T07:37:18.059Z,12.83
2022-08-30T07:38:20.942Z,12.54
2022-08-30T07:39:23.965Z,10.95
2022-08-30T07:40:28.210Z,11.16
2022-08-30T07:41:35.175Z,12.37
2022-08-30T07:42:40.221Z,15.69
2022-08-30T07:43:43.502Z,15.70
2022-08-30T07:44:47.217Z,12.13
2022-08-30T07:45:50.364Z,12.49
2022-08-30T07:46:53.769Z,12.61
2022-08-30T07:47:57.201Z,12.18
2022-08-30T07:49:00.809Z,12.31
2022-08-30T07:50:07.536Z,15.94
2022-08-30T07:51:16.152Z,21.65
2022-08-30T07:52:19.660Z,15.09
2022-08-30T07:53:22.921Z,11.64
2022-08-30T07:54:26.225Z,11.63
2022-08-30T07:55:29.369Z,12.01
2022-08-30T07:56:32.463Z,15.41
2022-08-30T07:57:35.558Z,12.03
2022-08-30T07:58:39.163Z,10.86
2022-08-30T07:59:42.688Z,13.36
2022-08-30T08:00:45.888Z,10.98
2022-08-30T08:01:49.217Z,10.65
2022-08-30T08:02:52.509Z,14.50
2022-08-30T08:03:55.754Z,11.57
2022-08-30T08:04:59.387Z,9.90
2022-08-30T08:06:04.131Z,13.51
2022-08-30T08:07:07.204Z,11.15
2022-08-30T08:08:12.420Z,15.95
2022-08-30T08:09:15.744Z,10.07
2022-08-30T08:10:19.493Z,9.59
2022-08-30T08:11:28.352Z,9.51
2022-08-30T08:12:30.771Z,8.96
2022-08-30T08:13:36.643Z,10.19
2022-08-30T08:14:40.814Z,15.38
2022-08-30T08:15:44.176Z,8.96
2022-08-30T08:16:48.084Z,10.74
2022-08-30T08:17:51.379Z,14.80
2022-08-30T08:18:54.699Z,10.81
2022-08-30T08:19:57.936Z,7.05
2022-08-30T08:21:01.543Z,13.31
2022-08-30T08:22:19.885Z,11.01
2022-08-30T08:23:09.937Z,7.66
2022-08-30T08:24:13.262Z,9.00
2022-08-30T08:25:16.439Z,8.17
2022-08-30T08:26:20.402Z,8.44
2022-08-30T08:27:24.198Z,11.44
2022-08-30T08:28:27.299Z,9.06
2022-08-30T08:29:30.599Z,10.15
2022-08-30T08:30:36.696Z,9.45
2022-08-30T08:31:40.904Z,8.51
2022-08-30T08:32:44.270Z,11.72
2022-08-30T08:33:47.748Z,10.86
2022-08-30T08:34:50.987Z,11.21
2022-08-30T08:35:54.280Z,9.08
2022-08-30T08:36:58.282Z,7.32
2022-08-30T08:38:01.812Z,9.26
2022-08-30T08:39:07.233Z,10.31
2022-08-30T08:40:14.988Z,18.78
2022-08-30T08:41:25.058Z,9.91
2022-08-30T08:42:56.127Z,11.53
2022-08-30T08:43:59.508Z,12.94
2022-08-30T08:45:11.523Z,13.37
2022-08-30T08:46:18.216Z,11.47
2022-08-30T08:47:25.258Z,11.87
2022-08-30T08:48:59.607Z,12.43
2022-08-30T08:49:54.116Z,14.67
2022-08-30T08:51:15.717Z,15.02
2022-08-30T08:52:49.786Z,12.68
2022-08-30T08:53:59.502Z,13.67
2022-08-30T08:55:09.520Z,9.35
2022-08-30T08:56:15.977Z,10.21
2022-08-30T08:57:22.660Z,7.94
2022-08-30T08:58:30.609Z,12.70
2022-08-30T08:59:33.824Z,13.08
2022-08-30T09:00:39.001Z,12.15
2022-08-30T09:01:42.355Z,17.03
2022-08-30T09:03:00.557Z,14.85
2022-08-30T09:04:07.381Z,8.32
2022-08-30T09:05:14.196Z,9.52
2022-08-30T09:06:33.863Z,14.09
2022-08-30T09:07:40.674Z,15.15
2022-08-30T09:08:43.829Z,12.98
2022-08-30T09:09:47.357Z,14.29
2022-08-30T09:11:05.133Z,10.03
2022-08-30T09:12:10.761Z,10.31
2022-08-30T09:13:14.086Z,13.01
2022-08-30T09:14:21.300Z,11.91
2022-08-30T09:15:27.812Z,11.22
2022-08-30T09:16:54.002Z,10.59
2022-08-30T09:18:04.082Z,10.91
2022-08-30T09:19:07.486Z,9.92
2022-08-30T09:20:12.237Z,9.85
2022-08-30T09:21:18.953Z,10.13
2022-08-30T09:22:37.427Z,13.01
2022-08-30T09:23:50.233Z,14.18
2022-08-30T09:24:57.053Z,10.88
2022-08-30T09:26:06.585Z,10.87
2022-08-30T09:27:18.855Z,10.84
2022-08-30T09:28:27.141Z,13.38
2022-08-30T09:29:30.782Z,10.53
2022-08-30T09:30:34.509Z,10.06
2022-08-30T09:31:52.932Z,11.49
2022-08-30T09:32:58.667Z,16.36
2022-08-30T09:34:10.595Z,11.19
2022-08-30T09:36:30.957Z,13.01
2022-08-30T09:37:37.785Z,14.74
2022-08-30T09:38:40.912Z,12.76
2022-08-30T09:39:45.844Z,14.81
2022-08-30T09:40:52.058Z,8.34
2022-08-30T09:42:14.232Z,9.42
2022-08-30T09:43:20.916Z,8.09
2022-08-30T09:44:30.101Z,12.14
2022-08-30T09:45:39.717Z,13.66
2022-08-30T09:46:49.521Z,11.55
2022-08-30T09:48:58.261Z,7.84
2022-08-30T09:50:09.703Z,12.81
2022-08-30T09:51:16.490Z,14.13
2022-08-30T09:52:44.475Z,10.17
2022-08-30T09:54:17.480Z,13.63
2022-08-30T09:55:28.444Z,13.99
2022-08-30T09:56:39.663Z,11.21
2022-08-30T09:58:10.582Z,12.21
2022-08-30T09:59:42.885Z,14.44
2022-08-30T10:01:06.252Z,15.45
2022-08-30T10:02:28.464Z,12.63
2022-08-30T10:03:53.599Z,11.98
2022-08-30T10:05:09.327Z,9.91
2022-08-30T10:06:17.155Z,13.08
2022-08-30T10:07:29.757Z,10.97
2022-08-30T10:08:36.321Z,9.78
2022-08-30T10:09:48.834Z,10.47
2022-08-30T10:11:03.403Z,8.57
2022-08-30T10:12:27.915Z,9.91
2022-08-30T10:13:43.616Z,8.49
2022-08-30T10:14:57.697Z,15.17
2022-08-30T10:16:10.357Z,13.35
2022-08-30T10:17:51.798Z,8.38
2022-08-30T10:19:06.308Z,12.98
2022-08-30T10:20:25.363Z,14.71
2022-08-30T10:21:44.184Z,10.21
2022-08-30T10:22:57.617Z,7.41
2022-08-30T10:24:11.645Z,12.38
2022-08-30T10:25:37.016Z,8.39
2022-08-30T10:26:49.812Z,10.84
2022-08-30T10:28:03.097Z,13.08
2022-08-30T10:29:12.952Z,8.57
2022-08-30T10:30:17.540Z,13.16
2022-08-30T10:31:32.674Z,10.25
2022-08-30T10:32:48.167Z,9.72
2022-08-30T10:33:54.646Z,10.19
2022-08-30T10:35:07.509Z,11.53
2022-08-30T10:36:13.961Z,10.76
2022-08-30T10:37:26.720Z,9.77
2022-08-30T10:38:38.851Z,13.59
2022-08-30T10:39:45.581Z,9.09
2022-08-30T10:41:10.350Z,10.23
2022-08-30T10:42:20.844Z,11.24
2022-08-30T10:43:38.132Z,9.85
2022-08-30T10:44:47.703Z,11.94
2022-08-30T10:45:53.574Z,11.39
2022-08-30T10:47:18.576Z,9.42
2022-08-30T10:48:27.106Z,11.49
2022-08-30T10:49:33.813Z,12.11
2022-08-30T10:50:46.585Z,9.46
2022-08-30T10:52:00.775Z,10.44
2022-08-30T10:53:25.147Z,7.15
2022-08-30T10:54:43.985Z,9.79
2022-08-30T10:56:08.070Z,9.29
2022-08-30T10:57:11.309Z,8.13
2022-08-30T10:58:16.055Z,7.08
2022-08-30T10:59:20.502Z,12.18
2022-08-30T11:00:29.693Z,7.89
2022-08-30T11:01:53.048Z,12.14
2022-08-30T11:03:19.588Z,11.77
2022-08-30T11:05:00.713Z,7.17
2022-08-30T11:06:22.788Z,10.67
2022-08-30T11:07:54.943Z,13.43
2022-08-30T11:09:15.210Z,10.48
2022-08-30T11:10:38.529Z,6.22
2022-08-30T11:11:54.484Z,8.97
2022-08-30T11:13:01.318Z,11.51
2022-08-30T11:14:06.663Z,9.16
2022-08-30T11:15:19.146Z,7.17
2022-08-30T11:16:44.310Z,9.92
2022-08-30T11:18:00.248Z,7.73
2022-08-30T11:19:05.931Z,10.21
2022-08-30T11:20:31.092Z,7.56
2022-08-30T11:21:38.921Z,14.04
2022-08-30T11:22:43.965Z,7.57
2022-08-30T11:24:12.282Z,11.94
2022-08-30T11:25:18.579Z,10.72
2022-08-30T11:26:49.476Z,9.68
2022-08-30T11:27:56.903Z,6.08
2022-08-30T11:29:04.313Z,8.94
2022-08-30T11:30:28.284Z,7.30
2022-08-30T11:31:37.536Z,7.96
2022-08-30T11:33:02.441Z,5.41
2022-08-30T11:34:07.841Z,11.19
2022-08-30T11:35:11.231Z,13.79
2022-08-30T11:36:37.541Z,5.32
2022-08-30T11:37:44.404Z,7.61
2022-08-30T11:38:51.325Z,10.89
2022-08-30T11:39:57.992Z,6.67
2022-08-30T11:41:09.784Z,8.99
2022-08-30T11:42:32.496Z,11.92
2022-08-30T11:43:39.555Z,10.07
2022-08-30T11:44:42.699Z,8.04
2022-08-30T11:45:50.166Z,5.74
2022-08-30T11:46:58.090Z,10.40
2022-08-30T11:48:05.165Z,8.46
2022-08-30T11:49:14.599Z,11.03
2022-08-30T11:50:28.354Z,8.18
2022-08-30T11:52:08.377Z,9.41
2022-08-30T11:53:01.365Z,6.83
2022-08-30T11:54:24.784Z,7.35
2022-08-30T11:55:49.630Z,6.86
2022-08-30T11:56:56.550Z,9.44
2022-08-30T11:58:18.819Z,10.02
2022-08-30T11:59:46.588Z,6.16
2022-08-30T12:00:54.065Z,5.72
2022-08-30T12:01:57.921Z,7.07
2022-08-30T12:03:05.489Z,6.17
2022-08-30T12:04:15.612Z,7.22
2022-08-30T12:05:40.527Z,5.25
2022-08-30T12:06:49.884Z,7.32
2022-08-30T12:08:02.067Z,8.03
2022-08-30T12:09:09.370Z,7.56
2022-08-30T12:10:16.929Z,9.70
2022-08-30T12:11:23.649Z,9.49
2022-08-30T12:12:33.433Z,8.74
2022-08-30T12:13:46.250Z,8.73
2022-08-30T12:14:53.933Z,8.73
2022-08-30T12:16:00.369Z,7.19
2022-08-30T12:17:41.940Z,6.18
2022-08-30T12:18:56.671Z,7.04
2022-08-30T12:20:00.320Z,4.78
2022-08-30T12:21:23.353Z,6.07
2022-08-30T12:22:28.376Z,10.58
2022-08-30T12:23:44.914Z,5.33
2022-08-30T12:24:49.432Z,5.45
2022-08-30T12:26:13.480Z,7.14
2022-08-30T12:27:32.718Z,6.20
2022-08-30T12:28:35.901Z,5.28
2022-08-30T12:29:43.203Z,4.91
2022-08-30T12:30:46.954Z,7.27
2022-08-30T12:32:03.352Z,7.09
2022-08-30T12:33:11.540Z,8.31
2022-08-30T12:34:27.379Z,6.50
2022-08-30T12:35:31.360Z,5.72
2022-08-30T12:36:41.071Z,6.77
2022-08-30T12:37:46.096Z,6.83
2022-08-30T12:38:51.061Z,7.93
2022-08-30T12:40:09.954Z,7.99
2022-08-30T12:41:16.762Z,9.41
2022-08-30T12:42:23.461Z,6.53
2022-08-30T12:43:38.775Z,6.66
2022-08-30T12:44:37.893Z,7.13
2022-08-30T12:45:50.514Z,6.17
2022-08-30T12:46:59.707Z,5.24
2022-08-30T12:48:10.545Z,6.81
2022-08-30T12:49:17.142Z,7.88
2022-08-30T12:50:24.071Z,6.36
2022-08-30T12:52:50.702Z,5.28
2022-08-30T12:53:55.735Z,6.89
2022-08-30T12:55:17.495Z,7.18
2022-08-30T12:56:35.110Z,10.28
2022-08-30T12:57:44.489Z,7.74
2022-08-30T12:58:51.028Z,7.87
2022-08-30T12:59:59.429Z,5.62
2022-08-30T13:01:31.337Z,4.51
2022-08-30T13:02:51.544Z,4.88
2022-08-30T13:03:58.255Z,6.06
2022-08-30T13:05:06.453Z,5.29
2022-08-30T13:06:10.308Z,6.64
2022-08-30T13:07:29.434Z,7.46
2022-08-30T13:08:37.541Z,6.16
2022-08-30T13:09:43.560Z,7.62
2022-08-30T13:10:54.323Z,6.82
2022-08-30T13:11:58.886Z,6.24
2022-08-30T13:13:04.784Z,7.34
2022-08-30T13:14:31.962Z,7.84
2022-08-30T13:15:39.400Z,5.44
2022-08-30T13:16:45.296Z,5.41
2022-08-30T13:17:47.611Z,7.06
2022-08-30T13:19:27.411Z,3.74
2022-08-30T13:20:31.317Z,6.92
2022-08-30T13:21:34.941Z,7.36
2022-08-30T13:22:42.132Z,5.03
2022-08-30T13:23:45.251Z,5.74
2022-08-30T13:24:50.848Z,5.64
2022-08-30T13:25:55.765Z,7.44
2022-08-30T13:27:06.067Z,8.55
2022-08-30T13:28:11.163Z,5.74
2022-08-30T13:29:20.052Z,4.33
2022-08-30T13:31:30.359Z,6.39
2022-08-30T13:32:38.649Z,7.52
2022-08-30T13:33:40.574Z,7.38
2022-08-30T13:34:44.699Z,6.58
2022-08-30T13:35:47.788Z,5.38
2022-08-30T13:36:54.015Z,4.64
2022-08-30T13:37:59.402Z,5.74
2022-08-30T13:39:04.640Z,4.61
2022-08-30T13:40:10.366Z,4.82
2022-08-30T13:41:14.829Z,5.11
2022-08-30T13:42:33.324Z,7.31
2022-08-30T13:43:23.134Z,5.39
2022-08-30T13:44:28.055Z,5.09
2022-08-30T13:45:48.574Z,4.84
2022-08-30T13:46:42.095Z,6.40
2022-08-30T13:47:48.287Z,6.93
2022-08-30T13:48:54.995Z,4.33
2022-08-30T13:49:58.950Z,7.60
2022-08-30T13:51:02.255Z,7.67
2022-08-30T13:52:23.292Z,5.53
2022-08-30T13:53:13.278Z,5.42
2022-08-30T13:54:16.540Z,6.56
2022-08-30T13:55:19.794Z,6.19
2022-08-30T13:56:25.564Z,5.46
2022-08-30T13:58:35.620Z,6.10
2022-08-30T13:59:38.821Z,5.93
2022-08-30T14:00:45.425Z,6.37
2022-08-30T14:02:55.778Z,7.61
2022-08-30T14:04:15.671Z,5.67
2022-08-30T14:05:05.638Z,7.43
2022-08-30T14:06:31.658Z,5.89
2022-08-30T14:07:19.894Z,7.91
2022-08-30T14:08:47.911Z,4.77
2022-08-30T14:09:35.069Z,5.04
2022-08-30T14:10:46.450Z,4.62
2022-08-30T14:11:43.700Z,5.49
2022-08-30T14:12:56.192Z,6.04
2022-08-30T14:14:59.459Z,5.07
2022-08-30T14:17:19.233Z,4.98
2022-08-30T14:18:22.859Z,6.02
2022-08-30T14:19:27.046Z,8.65
2022-08-30T14:20:31.890Z,6.59
2022-08-30T14:21:36.006Z,6.58
2022-08-30T14:22:39.324Z,4.02
2022-08-30T14:23:42.521Z,7.04
2022-08-30T14:24:45.623Z,5.56
2022-08-30T14:25:48.913Z,11.86
2022-08-30T14:26:54.068Z,4.22
2022-08-30T14:27:57.233Z,7.99
2022-08-30T14:29:02.753Z,6.36
2022-08-30T14:30:07.491Z,6.69
2022-08-30T14:31:11.231Z,7.87
2022-08-30T14:32:14.412Z,5.87
2022-08-30T14:33:17.796Z,6.72
2022-08-30T14:34:22.482Z,6.52
2022-08-30T14:35:25.820Z,6.58
2022-08-30T14:36:32.033Z,6.37
2022-08-30T14:37:35.148Z,3.97
2022-08-30T14:38:38.722Z,4.58
2022-08-30T14:39:41.979Z,10.43
2022-08-30T14:40:45.219Z,5.46